createdAt,value
2018-07-15T00:01:35.522Z,3.90
2018-07-15T00:04:03.818Z,3.26
2018-07-15T00:06:32.080Z,3.88
2018-07-15T00:09:01.369Z,3.20
2018-07-15T00:11:29.623Z,3.46
2018-07-15T00:13:57.917Z,3.78
2018-07-15T00:16:26.221Z,3.82
2018-07-15T00:18:54.477Z,4.06
2018-07-15T00:21:22.741Z,4.60
2018-07-15T00:23:51.027Z,4.24
2018-07-15T00:26:19.337Z,4.54
2018-07-15T00:28:47.585Z,4.12
2018-07-15T00:31:17.079Z,4.30
2018-07-15T00:33:46.641Z,3.72
2018-07-15T00:36:14.900Z,3.84
2018-07-15T00:38:43.199Z,4.92
2018-07-15T00:41:11.492Z,3.98
2018-07-15T00:43:39.790Z,4.42
2018-07-15T00:46:08.968Z,3.46
2018-07-15T00:48:37.283Z,4.76
2018-07-15T00:51:05.564Z,4.02
2018-07-15T00:53:33.866Z,3.92
2018-07-15T00:56:02.138Z,3.40
2018-07-15T00:58:30.439Z,4.60
2018-07-15T01:00:58.701Z,3.90
2018-07-15T01:03:26.951Z,4.50
2018-07-15T01:05:55.228Z,4.08
2018-07-15T01:08:23.477Z,4.68
2018-07-15T01:10:51.764Z,4.80
2018-07-15T01:13:20.018Z,4.30
2018-07-15T01:15:48.298Z,4.60
2018-07-15T01:18:16.552Z,4.76
2018-07-15T01:20:44.848Z,3.98
2018-07-15T01:26:06.608Z,4.02
2018-07-15T01:28:34.919Z,4.26
2018-07-15T01:31:03.176Z,4.86
2018-07-15T01:33:31.438Z,4.30
2018-07-15T01:35:59.728Z,4.62
2018-07-15T01:38:28.014Z,4.42
2018-07-15T01:40:56.306Z,5.54
2018-07-15T01:43:24.596Z,4.54
2018-07-15T01:45:52.872Z,4.74
2018-07-15T01:48:21.187Z,4.98
2018-07-15T01:50:49.439Z,5.22
2018-07-15T01:53:17.729Z,5.16
2018-07-15T01:55:45.983Z,4.66
2018-07-15T01:58:15.280Z,4.74
2018-07-15T02:00:43.561Z,4.88
2018-07-15T02:03:11.826Z,5.02
2018-07-15T02:05:40.114Z,4.94
2018-07-15T02:08:08.367Z,5.10
2018-07-15T02:10:36.624Z,6.24
2018-07-15T02:13:04.904Z,4.62
2018-07-15T02:15:33.184Z,5.20
2018-07-15T02:18:01.468Z,6.00
2018-07-15T02:20:29.800Z,5.48
2018-07-15T02:23:01.576Z,4.78
2018-07-15T02:25:29.859Z,4.74
2018-07-15T02:27:58.113Z,5.44
2018-07-15T02:30:26.365Z,5.62
2018-07-15T02:32:54.644Z,4.62
2018-07-15T02:35:22.927Z,5.50
2018-07-15T02:37:51.212Z,5.92
2018-07-15T02:40:19.493Z,5.04
2018-07-15T02:42:47.745Z,5.10
2018-07-15T02:45:16.034Z,5.80
2018-07-15T02:47:45.372Z,5.42
2018-07-15T02:50:13.660Z,4.90
2018-07-15T02:52:41.908Z,6.00
2018-07-15T02:55:09.393Z,4.84
2018-07-15T02:57:38.188Z,5.20
2018-07-15T03:00:06.480Z,5.74
2018-07-15T03:02:34.738Z,5.28
2018-07-15T03:05:03.016Z,5.88
2018-07-15T03:07:31.267Z,4.82
2018-07-15T03:09:59.544Z,5.30
2018-07-15T03:12:27.801Z,5.12
2018-07-15T03:14:56.088Z,5.14
2018-07-15T03:17:24.413Z,5.26
2018-07-15T03:19:52.645Z,5.82
2018-07-15T03:22:20.928Z,5.90
2018-07-15T03:24:49.196Z,6.02
2018-07-15T03:27:17.478Z,5.50
2018-07-15T03:29:46.999Z,6.06
2018-07-15T03:32:16.224Z,5.84
2018-07-15T03:34:44.530Z,6.86
2018-07-15T03:37:12.804Z,5.98
2018-07-15T03:39:41.071Z,6.22
2018-07-15T03:42:09.349Z,5.52
2018-07-15T03:44:38.268Z,6.36
2018-07-15T03:47:06.551Z,6.14
2018-07-15T03:49:34.799Z,6.20
2018-07-15T03:52:03.055Z,5.78
2018-07-15T03:54:34.564Z,5.62
2018-07-15T03:57:02.817Z,6.08
2018-07-15T03:59:31.103Z,6.24
2018-07-15T04:01:59.352Z,6.94
2018-07-15T04:04:27.632Z,6.76
2018-07-15T04:06:55.890Z,6.46
2018-07-15T04:09:23.412Z,5.96
2018-07-15T04:11:51.659Z,5.48
2018-07-15T04:14:19.946Z,6.98
2018-07-15T04:16:48.199Z,7.94
2018-07-15T04:19:16.485Z,6.82
2018-07-15T04:21:45.796Z,6.68
2018-07-15T04:24:13.343Z,7.60
2018-07-15T04:26:41.626Z,7.48
2018-07-15T04:29:16.432Z,7.20
2018-07-15T04:31:45.049Z,6.70
2018-07-15T04:34:13.325Z,6.64
2018-07-15T04:36:41.612Z,7.06
2018-07-15T04:39:09.864Z,7.70
2018-07-15T04:41:39.001Z,6.92
2018-07-15T04:44:07.622Z,6.94
2018-07-15T04:46:35.908Z,8.76
2018-07-15T04:49:04.192Z,7.72
2018-07-15T04:51:32.486Z,7.50
2018-07-15T04:54:00.777Z,7.64
2018-07-15T04:56:29.035Z,7.36
2018-07-15T04:58:57.299Z,7.50
2018-07-15T05:01:25.577Z,7.62
2018-07-15T05:03:53.059Z,7.60
2018-07-15T05:06:20.580Z,8.08
2018-07-15T05:08:48.871Z,8.00
2018-07-15T05:11:17.189Z,7.72
2018-07-15T05:13:46.516Z,8.50
2018-07-15T05:16:15.784Z,9.28
2018-07-15T05:18:44.526Z,8.56
2018-07-15T05:21:12.805Z,8.28
2018-07-15T05:23:41.061Z,7.40
2018-07-15T05:26:09.353Z,8.02
2018-07-15T05:28:38.823Z,9.42
2018-07-15T05:31:07.900Z,9.24
2018-07-15T05:33:36.183Z,8.66
2018-07-15T05:36:04.439Z,9.44
2018-07-15T05:38:32.691Z,9.38
2018-07-15T05:41:00.979Z,8.98
2018-07-15T05:43:29.229Z,8.74
2018-07-15T05:45:57.477Z,8.46
2018-07-15T05:48:24.987Z,9.42
2018-07-15T05:50:53.288Z,9.94
2018-07-15T05:53:21.528Z,8.42
2018-07-15T05:55:49.784Z,9.06
2018-07-15T05:58:18.063Z,9.10
2018-07-15T06:00:46.344Z,8.44
2018-07-15T06:03:15.241Z,8.54
2018-07-15T06:08:36.903Z,9.70
2018-07-15T06:11:05.156Z,9.70
2018-07-15T06:13:33.457Z,9.48
2018-07-15T06:16:01.773Z,8.98
2018-07-15T06:18:30.038Z,8.52
2018-07-15T06:20:58.301Z,11.32
2018-07-15T06:23:26.592Z,11.02
2018-07-15T06:25:54.847Z,10.88
2018-07-15T06:28:23.131Z,10.32
2018-07-15T06:30:51.390Z,11.30
2018-07-15T06:33:18.915Z,10.74
2018-07-15T06:35:47.178Z,10.12
2018-07-15T06:38:16.614Z,10.32
2018-07-15T06:40:45.815Z,10.30
2018-07-15T06:43:14.593Z,10.96
2018-07-15T06:45:42.885Z,10.08
2018-07-15T06:48:11.144Z,9.92
2018-07-15T06:50:39.440Z,10.68
2018-07-15T06:53:09.222Z,10.28
2018-07-15T06:55:38.756Z,9.78
2018-07-15T06:58:07.830Z,10.56
2018-07-15T07:00:36.113Z,8.90
2018-07-15T07:03:04.376Z,8.92
2018-07-15T07:05:32.624Z,9.26
2018-07-15T07:08:00.899Z,9.88
2018-07-15T07:10:29.164Z,8.98
2018-07-15T07:12:57.412Z,9.02
2018-07-15T07:15:25.697Z,9.76
2018-07-15T07:17:53.952Z,8.74
2018-07-15T07:20:22.320Z,9.06
2018-07-15T07:22:50.505Z,8.66
2018-07-15T07:25:18.755Z,7.36
2018-07-15T07:27:47.047Z,6.90
2018-07-15T07:30:16.404Z,7.78
2018-07-15T07:32:45.735Z,7.20
2018-07-15T07:35:14.700Z,6.80
2018-07-15T07:37:42.974Z,6.42
2018-07-15T07:40:11.223Z,5.62
2018-07-15T07:42:39.484Z,5.94
2018-07-15T07:45:08.485Z,6.78
2018-07-15T07:47:36.752Z,6.58
2018-07-15T07:50:05.040Z,6.22
2018-07-15T07:52:33.292Z,6.82
2018-07-15T07:55:01.590Z,5.86
2018-07-15T07:57:29.888Z,5.16
2018-07-15T07:59:58.158Z,5.54
2018-07-15T08:02:26.419Z,4.28
2018-07-15T08:04:54.698Z,4.04
2018-07-15T08:07:22.948Z,4.10
2018-07-15T08:09:51.237Z,4.56
2018-07-15T08:12:19.484Z,4.38
2018-07-15T08:14:47.768Z,4.10
2018-07-15T08:17:16.568Z,4.20
2018-07-15T08:19:45.696Z,4.42
2018-07-15T08:22:14.700Z,4.02
2018-07-15T08:24:45.947Z,4.22
2018-07-15T08:27:14.609Z,4.00
2018-07-15T08:29:42.891Z,3.60
2018-07-15T08:32:11.132Z,4.04
2018-07-15T08:34:39.419Z,3.68
2018-07-15T08:37:08.776Z,4.46
2018-07-15T08:39:37.856Z,3.98
2018-07-15T08:42:06.149Z,3.78
2018-07-15T08:44:34.420Z,3.20
2018-07-15T08:47:02.703Z,3.84
2018-07-15T08:49:30.960Z,3.70
2018-07-15T08:51:59.240Z,3.62
2018-07-15T08:54:27.515Z,3.72
2018-07-15T08:56:55.762Z,3.72
2018-07-15T08:59:24.068Z,3.14
2018-07-15T09:01:52.317Z,3.92
2018-07-15T09:04:20.568Z,3.86
2018-07-15T09:06:48.844Z,3.60
2018-07-15T09:09:17.091Z,3.36
2018-07-15T09:11:45.372Z,3.12
2018-07-15T09:14:13.648Z,3.06
2018-07-15T09:16:41.900Z,3.54
2018-07-15T09:19:10.177Z,3.70
2018-07-15T09:21:38.436Z,3.50
2018-07-15T09:24:06.730Z,3.00
2018-07-15T09:26:34.985Z,3.30
2018-07-15T09:29:03.247Z,3.96
2018-07-15T09:31:31.527Z,3.42
2018-07-15T09:33:59.829Z,3.12
2018-07-15T09:36:28.089Z,3.04
2018-07-15T09:38:56.385Z,3.10
2018-07-15T09:41:24.628Z,3.10
2018-07-15T09:43:52.922Z,2.90
2018-07-15T09:46:21.174Z,3.10
2018-07-15T09:48:49.457Z,2.84
2018-07-15T09:51:17.709Z,3.62
2018-07-15T09:53:45.223Z,3.40
2018-07-15T09:56:13.472Z,3.42
2018-07-15T09:58:41.752Z,3.80
2018-07-15T10:01:10.057Z,4.22
2018-07-15T10:03:38.307Z,3.88
2018-07-15T10:06:06.556Z,3.80
2018-07-15T10:08:34.840Z,3.34
2018-07-15T10:11:03.113Z,3.12
2018-07-15T10:13:31.370Z,4.12
2018-07-15T10:15:59.647Z,3.92
2018-07-15T10:18:27.908Z,3.40
2018-07-15T10:20:56.192Z,3.72
2018-07-15T10:23:23.690Z,3.74
2018-07-15T10:25:51.944Z,3.30
2018-07-15T10:28:20.237Z,2.88
2018-07-15T10:30:48.521Z,2.80
2018-07-15T10:33:16.948Z,3.42
2018-07-15T10:35:45.157Z,3.30
2018-07-15T10:38:12.653Z,3.32
2018-07-15T10:40:40.931Z,3.12
2018-07-15T10:43:09.184Z,3.62
2018-07-15T10:45:37.160Z,4.06
2018-07-15T10:48:05.508Z,3.26
2018-07-15T10:50:33.797Z,2.90
2018-07-15T10:53:02.105Z,3.40
2018-07-15T10:55:30.389Z,2.96
2018-07-15T10:57:58.640Z,3.30
2018-07-15T11:00:26.928Z,3.20
2018-07-15T11:02:55.189Z,2.96
2018-07-15T11:05:23.480Z,3.22
2018-07-15T11:07:51.733Z,2.78
2018-07-15T11:10:19.976Z,3.14
2018-07-15T11:12:48.253Z,2.92
2018-07-15T11:15:15.736Z,3.70
2018-07-15T11:17:44.012Z,2.76
2018-07-15T11:20:12.260Z,3.00
2018-07-15T11:22:40.540Z,2.82
2018-07-15T11:25:08.804Z,3.08
2018-07-15T11:27:37.092Z,3.18
2018-07-15T11:30:05.373Z,3.10
2018-07-15T11:32:33.625Z,2.90
2018-07-15T11:35:01.900Z,2.64
2018-07-15T11:37:30.156Z,2.96
2018-07-15T11:39:58.445Z,3.00
2018-07-15T11:42:26.724Z,2.88
2018-07-15T11:44:54.981Z,2.84
2018-07-15T11:47:23.269Z,2.92
2018-07-15T11:49:51.556Z,2.50
2018-07-15T11:52:19.832Z,3.02
2018-07-15T11:54:48.079Z,3.34
2018-07-15T11:57:16.365Z,2.80
2018-07-15T11:59:45.046Z,2.72
2018-07-15T12:02:13.325Z,3.32
2018-07-15T12:04:41.576Z,2.88
2018-07-15T12:07:09.853Z,3.10
2018-07-15T12:09:38.144Z,3.06
2018-07-15T12:12:06.397Z,2.74
2018-07-15T12:14:34.653Z,2.94
2018-07-15T12:17:02.929Z,2.98
2018-07-15T12:19:31.211Z,3.12
2018-07-15T12:21:59.459Z,2.58
2018-07-15T12:24:27.749Z,2.74
2018-07-15T12:26:56.064Z,2.60
2018-07-15T12:29:24.313Z,2.68
2018-07-15T12:31:52.593Z,2.58
2018-07-15T12:34:20.077Z,2.58
2018-07-15T12:36:48.357Z,2.72
2018-07-15T12:39:16.660Z,3.08
2018-07-15T12:41:44.948Z,2.90
2018-07-15T12:44:13.204Z,2.80
2018-07-15T12:46:41.475Z,3.24
2018-07-15T12:49:09.748Z,2.86
2018-07-15T12:51:38.008Z,2.74
2018-07-15T12:54:07.347Z,2.36
2018-07-15T12:56:37.555Z,2.42
2018-07-15T12:59:05.805Z,2.64
2018-07-15T13:01:34.495Z,2.32
2018-07-15T13:04:02.782Z,2.84
2018-07-15T13:06:31.045Z,2.52
2018-07-15T13:08:59.326Z,2.60
2018-07-15T13:11:27.567Z,2.72
2018-07-15T13:13:55.852Z,2.58
2018-07-15T13:16:24.112Z,3.06
2018-07-15T13:18:52.392Z,2.64
2018-07-15T13:21:20.644Z,2.32
2018-07-15T13:23:48.940Z,2.90
2018-07-15T13:26:17.194Z,2.62
2018-07-15T13:28:45.483Z,2.62
2018-07-15T13:31:13.736Z,2.86
2018-07-15T13:33:41.994Z,2.50
2018-07-15T13:36:10.288Z,2.52
2018-07-15T13:38:38.540Z,2.96
2018-07-15T13:41:06.805Z,2.38
2018-07-15T13:43:35.090Z,2.36
2018-07-15T13:46:03.378Z,1.94
2018-07-15T13:48:31.663Z,2.30
2018-07-15T13:50:59.922Z,2.30
2018-07-15T13:53:28.205Z,2.16
2018-07-15T13:55:56.476Z,2.78
2018-07-15T13:58:24.001Z,2.30
2018-07-15T14:00:52.260Z,2.48
2018-07-15T14:06:13.330Z,2.10
2018-07-15T14:08:41.604Z,2.28
2018-07-15T14:11:09.882Z,2.46
2018-07-15T14:13:38.156Z,2.16
2018-07-15T14:16:06.394Z,2.04
2018-07-15T14:18:34.671Z,2.38
2018-07-15T14:21:02.921Z,2.28
2018-07-15T14:23:30.436Z,2.44
2018-07-15T14:25:58.688Z,2.32
2018-07-15T14:28:26.981Z,2.38
2018-07-15T14:30:55.234Z,1.90
2018-07-15T14:33:23.505Z,2.40
2018-07-15T14:35:51.752Z,2.50
2018-07-15T14:38:20.003Z,2.40
2018-07-15T14:40:48.271Z,2.38
2018-07-15T14:43:16.530Z,2.32
2018-07-15T14:45:44.053Z,2.36
2018-07-15T14:48:12.308Z,2.42
2018-07-15T14:50:40.592Z,2.20
2018-07-15T14:53:08.071Z,2.28
2018-07-15T14:55:36.352Z,2.30
2018-07-15T14:58:03.837Z,2.50
2018-07-15T15:00:32.084Z,2.28
2018-07-15T15:03:00.367Z,2.32
2018-07-15T15:05:28.619Z,2.30
2018-07-15T15:07:56.920Z,2.22
2018-07-15T15:10:25.170Z,2.20
2018-07-15T15:12:53.521Z,2.26
2018-07-15T15:15:21.768Z,2.16
2018-07-15T15:17:50.017Z,2.22
2018-07-15T15:20:18.288Z,2.24
2018-07-15T15:22:46.576Z,2.16
2018-07-15T15:25:14.844Z,2.50
2018-07-15T15:27:43.136Z,2.10
2018-07-15T15:30:11.388Z,2.02
2018-07-15T15:32:39.643Z,2.04
2018-07-15T15:35:07.941Z,2.30
2018-07-15T15:37:36.189Z,2.12
2018-07-15T15:40:04.463Z,2.58
2018-07-15T15:42:32.016Z,2.00
2018-07-15T15:44:59.494Z,2.02
2018-07-15T15:47:27.766Z,2.10
2018-07-15T15:49:56.012Z,2.00
2018-07-15T15:52:24.309Z,2.10
2018-07-15T15:54:51.795Z,1.86
2018-07-15T15:57:20.071Z,2.30
2018-07-15T15:59:48.352Z,2.26
2018-07-15T16:02:16.634Z,2.30
2018-07-15T16:04:44.924Z,2.48
2018-07-15T16:07:13.171Z,2.06
2018-07-15T16:09:41.415Z,2.10
2018-07-15T16:12:09.692Z,1.96
2018-07-15T16:14:37.948Z,2.10
2018-07-15T16:17:06.228Z,2.18
2018-07-15T16:19:34.479Z,1.90
2018-07-15T16:22:02.764Z,2.34
2018-07-15T16:24:30.248Z,2.04
2018-07-15T16:26:58.523Z,2.68
2018-07-15T16:29:26.780Z,2.24
2018-07-15T16:31:55.053Z,2.10
2018-07-15T16:34:23.301Z,1.98
2018-07-15T16:36:51.588Z,1.92
2018-07-15T16:39:19.829Z,2.22
2018-07-15T16:41:48.076Z,2.02
2018-07-15T16:44:16.350Z,2.08
2018-07-15T16:46:44.640Z,1.74
2018-07-15T16:49:12.892Z,2.30
2018-07-15T16:51:41.170Z,2.14
2018-07-15T16:54:09.445Z,2.00
2018-07-15T16:56:38.584Z,2.16
2018-07-15T16:59:06.883Z,2.06
2018-07-15T17:01:35.194Z,2.04
2018-07-15T17:04:03.396Z,1.96
2018-07-15T17:06:31.668Z,1.92
2018-07-15T17:08:59.944Z,2.14
2018-07-15T17:11:28.220Z,1.70
2018-07-15T17:13:55.699Z,2.22
2018-07-15T17:16:23.983Z,2.08
2018-07-15T17:18:52.227Z,2.10
2018-07-15T17:21:20.507Z,1.94
2018-07-15T17:23:48.809Z,1.92
2018-07-15T17:26:17.060Z,1.82
2018-07-15T17:28:45.313Z,1.70
2018-07-15T17:31:13.592Z,2.42
2018-07-15T17:33:41.869Z,1.98
2018-07-15T17:36:10.240Z,2.62
2018-07-15T17:38:38.494Z,2.10
2018-07-15T17:41:06.776Z,1.82
2018-07-15T17:43:35.054Z,2.12
2018-07-15T17:46:03.299Z,1.94
2018-07-15T17:48:31.588Z,2.30
2018-07-15T17:50:59.866Z,1.82
2018-07-15T17:53:28.156Z,1.96
2018-07-15T17:55:56.448Z,1.94
2018-07-15T17:58:24.703Z,2.10
2018-07-15T18:00:52.968Z,2.28
2018-07-15T18:03:21.248Z,2.20
2018-07-15T18:05:49.496Z,2.30
2018-07-15T18:08:17.772Z,2.08
2018-07-15T18:10:46.020Z,2.00
2018-07-15T18:13:15.241Z,2.14
2018-07-15T18:15:43.521Z,2.30
2018-07-15T18:18:11.779Z,2.30
2018-07-15T18:20:40.125Z,2.12
2018-07-15T18:23:09.282Z,2.38
2018-07-15T18:25:37.536Z,1.94
2018-07-15T18:28:06.817Z,1.82
2018-07-15T18:30:35.070Z,1.90
2018-07-15T18:33:03.347Z,1.90
2018-07-15T18:35:31.604Z,2.28
2018-07-15T18:37:59.872Z,2.00
2018-07-15T18:40:28.148Z,1.72
2018-07-15T18:42:55.648Z,2.70
2018-07-15T18:45:25.837Z,1.82
2018-07-15T18:47:54.112Z,2.12
2018-07-15T18:50:22.360Z,2.12
2018-07-15T18:52:50.632Z,1.86
2018-07-15T18:55:18.890Z,2.66
2018-07-15T18:57:47.192Z,2.16
2018-07-15T19:00:15.449Z,1.90
2018-07-15T19:02:42.940Z,2.14
2018-07-15T19:05:11.216Z,2.12
2018-07-15T19:07:39.468Z,2.12
2018-07-15T19:10:08.752Z,2.20
2018-07-15T19:12:37.014Z,3.46
2018-07-15T19:15:05.305Z,2.26
2018-07-15T19:17:33.589Z,1.90
2018-07-15T19:20:01.848Z,2.20
2018-07-15T19:22:30.127Z,2.28
2018-07-15T19:24:58.378Z,2.20
2018-07-15T19:27:26.659Z,2.88
2018-07-15T19:29:54.944Z,2.10
2018-07-15T19:32:23.213Z,2.50
2018-07-15T19:34:51.492Z,2.88
2018-07-15T19:37:19.740Z,2.32
2018-07-15T19:39:48.025Z,2.18
2018-07-15T19:42:16.335Z,2.52
2018-07-15T19:44:44.577Z,2.12
2018-07-15T19:47:12.838Z,4.30
2018-07-15T19:49:41.116Z,2.62
2018-07-15T19:52:09.363Z,2.42
2018-07-15T19:54:37.635Z,2.40
2018-07-15T19:57:09.189Z,2.54
2018-07-15T19:59:37.506Z,2.38
2018-07-15T20:02:05.752Z,2.50
2018-07-15T20:04:33.997Z,2.40
2018-07-15T20:07:02.284Z,3.18
2018-07-15T20:09:30.565Z,2.18
2018-07-15T20:11:58.816Z,2.50
2018-07-15T20:14:27.121Z,4.00
2018-07-15T20:16:55.401Z,2.64
2018-07-15T20:19:23.667Z,2.30
2018-07-15T20:21:51.965Z,2.44
2018-07-15T20:24:20.212Z,2.56
2018-07-15T20:26:48.488Z,2.70
2018-07-15T20:29:16.752Z,2.40
2018-07-15T20:31:45.047Z,2.34
2018-07-15T20:34:13.326Z,2.50
2018-07-15T20:36:41.650Z,3.02
2018-07-15T20:39:09.933Z,2.40
2018-07-15T20:41:38.208Z,2.80
2018-07-15T20:44:06.504Z,2.34
2018-07-15T20:46:34.803Z,2.66
2018-07-15T20:49:03.072Z,2.80
2018-07-15T20:51:31.357Z,2.90
2018-07-15T20:53:59.621Z,2.82
2018-07-15T20:56:33.132Z,2.66
2018-07-15T20:59:01.389Z,2.60
2018-07-15T21:04:22.999Z,2.78
2018-07-15T21:06:51.295Z,2.58
2018-07-15T21:09:19.552Z,2.86
2018-07-15T21:11:47.813Z,2.54
2018-07-15T21:14:16.092Z,2.26
2018-07-15T21:16:44.335Z,2.42
2018-07-15T21:19:12.686Z,2.26
2018-07-15T21:21:40.901Z,2.92
2018-07-15T21:24:09.408Z,2.48
2018-07-15T21:26:37.691Z,2.32
2018-07-15T21:29:06.042Z,2.52
2018-07-15T21:31:34.398Z,2.92
2018-07-15T21:34:02.561Z,2.48
2018-07-15T21:36:30.856Z,3.00
2018-07-15T21:38:59.133Z,2.72
2018-07-15T21:41:27.414Z,3.00
2018-07-15T21:43:56.657Z,2.58
2018-07-15T21:46:24.956Z,3.00
2018-07-15T21:48:53.215Z,2.96
2018-07-15T21:51:21.505Z,2.70
2018-07-15T21:53:49.754Z,2.84
2018-07-15T21:56:18.036Z,2.62
2018-07-15T21:58:51.636Z,2.68
2018-07-15T22:01:19.926Z,2.54
2018-07-15T22:03:48.207Z,2.94
2018-07-15T22:06:16.496Z,2.46
2018-07-15T22:08:44.752Z,2.64
2018-07-15T22:11:13.151Z,2.62
2018-07-15T22:13:41.453Z,2.44
2018-07-15T22:16:09.753Z,2.44
2018-07-15T22:18:44.856Z,3.02
2018-07-15T22:21:13.200Z,2.62
2018-07-15T22:23:41.464Z,2.48
2018-07-15T22:26:09.731Z,4.60
2018-07-15T22:28:38.017Z,2.64
2018-07-15T22:31:06.335Z,2.90
2018-07-15T22:33:34.577Z,2.62
2018-07-15T22:36:02.063Z,2.90
2018-07-15T22:38:30.339Z,2.80
2018-07-15T22:40:58.590Z,2.38
2018-07-15T22:43:26.877Z,2.58
2018-07-15T22:45:54.373Z,2.56
2018-07-15T22:48:22.667Z,3.38
2018-07-15T22:50:50.912Z,2.80
2018-07-15T22:53:19.220Z,2.82
2018-07-15T22:55:47.463Z,2.80
2018-07-15T22:58:16.696Z,3.16
2018-07-15T23:00:44.982Z,2.60
2018-07-15T23:03:13.243Z,2.56
2018-07-15T23:06:06.353Z,3.00
2018-07-15T23:08:34.600Z,2.64
2018-07-15T23:11:02.895Z,2.44
2018-07-15T23:13:31.140Z,3.02
2018-07-15T23:16:02.710Z,3.12
2018-07-15T23:18:30.968Z,2.96
2018-07-15T23:20:59.260Z,3.02
2018-07-15T23:23:27.549Z,3.00
2018-07-15T23:26:02.652Z,3.08
2018-07-15T23:28:30.935Z,3.06
2018-07-15T23:31:00.217Z,3.38
2018-07-15T23:36:21.108Z,2.72
2018-07-15T23:38:49.406Z,3.08
2018-07-15T23:41:17.669Z,3.38
2018-07-15T23:43:45.951Z,3.00
2018-07-15T23:46:13.476Z,3.42
2018-07-15T23:48:42.733Z,2.88
2018-07-15T23:51:10.984Z,2.96
2018-07-15T23:53:49.315Z,2.62
2018-07-15T23:56:17.560Z,3.62
2018-07-15T23:58:46.806Z,3.12
